createdAt,value
2017-11-03T00:02:01.087Z,36.17
2017-11-03T00:04:29.525Z,33.87
2017-11-03T00:06:58.142Z,37.50
2017-11-03T00:09:26.498Z,36.13
2017-11-03T00:11:54.918Z,35.17
2017-11-03T00:14:23.278Z,38.57
2017-11-03T00:16:51.638Z,39.50
2017-11-03T00:19:19.711Z,39.67
2017-11-03T00:21:50.063Z,39.93
2017-11-03T00:24:18.417Z,39.83
2017-11-03T00:26:47.762Z,41.90
2017-11-03T00:29:16.118Z,36.37
2017-11-03T00:31:44.548Z,41.53
2017-11-03T00:34:13.758Z,38.83
2017-11-03T00:36:44.282Z,39.50
2017-11-03T00:39:13.412Z,37.07
2017-11-03T00:41:41.776Z,38.47
2017-11-03T00:44:10.214Z,41.17
2017-11-03T00:46:38.822Z,38.37
2017-11-03T00:49:07.175Z,37.83
2017-11-03T00:51:36.343Z,45.97
2017-11-03T00:54:04.348Z,41.00
2017-11-03T00:56:33.531Z,39.43
2017-11-03T00:59:01.897Z,40.73
2017-11-03T01:01:30.251Z,38.43
2017-11-03T01:03:58.641Z,41.67
2017-11-03T01:06:26.998Z,39.60
2017-11-03T01:08:55.414Z,37.70
2017-11-03T01:11:23.771Z,40.57
2017-11-03T01:13:52.136Z,39.80
2017-11-03T01:16:20.564Z,42.20
2017-11-03T01:18:49.679Z,42.30
2017-11-03T01:21:18.034Z,38.97
2017-11-03T01:23:47.246Z,42.20
2017-11-03T01:26:15.611Z,40.37
2017-11-03T01:28:43.953Z,42.13
2017-11-03T01:31:12.027Z,44.40
2017-11-03T01:33:40.383Z,40.10
2017-11-03T01:36:08.749Z,35.87
2017-11-03T01:38:36.825Z,39.57
2017-11-03T01:41:06.662Z,40.97
2017-11-03T01:43:34.680Z,43.57
2017-11-03T01:46:07.242Z,43.10
2017-11-03T01:48:36.365Z,40.63
2017-11-03T01:51:04.771Z,40.07
2017-11-03T01:53:33.131Z,40.10
2017-11-03T01:56:01.482Z,38.30
2017-11-03T01:58:30.646Z,43.13
2017-11-03T02:00:58.710Z,38.07
2017-11-03T02:03:27.035Z,43.07
2017-11-03T02:05:55.038Z,36.13
2017-11-03T02:08:23.400Z,40.07
2017-11-03T02:10:51.858Z,39.47
2017-11-03T02:13:20.220Z,42.23
2017-11-03T02:15:50.374Z,39.03
2017-11-03T02:18:18.734Z,40.63
2017-11-03T02:20:46.403Z,37.23
2017-11-03T02:23:14.794Z,41.43
2017-11-03T02:25:45.175Z,38.97
2017-11-03T02:28:13.954Z,39.43
2017-11-03T02:30:42.424Z,37.77
2017-11-03T02:33:10.774Z,42.13
2017-11-03T02:35:40.161Z,35.57
2017-11-03T02:38:08.564Z,42.97
2017-11-03T02:40:36.577Z,41.60
2017-11-03T02:43:05.184Z,37.63
2017-11-03T02:45:33.632Z,39.43
2017-11-03T02:48:02.751Z,41.87
2017-11-03T02:50:31.107Z,40.17
2017-11-03T02:53:00.275Z,39.97
2017-11-03T02:55:29.649Z,38.97
2017-11-03T02:57:58.003Z,38.03
2017-11-03T03:00:26.423Z,40.03
2017-11-03T03:02:54.774Z,36.80
2017-11-03T03:05:24.283Z,40.33
2017-11-03T03:07:52.671Z,44.07
2017-11-03T03:10:21.032Z,42.63
2017-11-03T03:12:49.386Z,37.63
2017-11-03T03:15:17.414Z,36.47
2017-11-03T03:17:45.811Z,37.90
2017-11-03T03:20:14.411Z,41.20
2017-11-03T03:22:43.542Z,42.10
2017-11-03T03:25:11.855Z,44.70
2017-11-03T03:27:40.202Z,38.87
2017-11-03T03:30:08.720Z,41.73
2017-11-03T03:32:37.118Z,41.23
2017-11-03T03:35:07.219Z,45.93
2017-11-03T03:37:35.571Z,43.10
2017-11-03T03:40:03.327Z,45.40
2017-11-03T03:42:31.700Z,42.43
2017-11-03T03:45:00.116Z,40.17
2017-11-03T03:47:28.138Z,43.90
2017-11-03T03:49:56.521Z,43.47
2017-11-03T03:52:24.931Z,42.00
2017-11-03T03:54:54.333Z,35.53
2017-11-03T03:57:22.003Z,49.20
2017-11-03T03:59:50.432Z,47.40
2017-11-03T04:02:18.803Z,41.33
2017-11-03T04:04:51.455Z,41.97
2017-11-03T04:07:20.627Z,41.67
2017-11-03T04:09:48.983Z,45.77
2017-11-03T04:12:17.344Z,46.33
2017-11-03T04:14:45.754Z,41.20
2017-11-03T04:17:14.107Z,38.13
2017-11-03T04:19:42.470Z,43.77
2017-11-03T04:22:10.863Z,49.00
2017-11-03T04:24:39.228Z,44.83
2017-11-03T04:27:07.235Z,39.27
2017-11-03T04:29:35.624Z,43.13
2017-11-03T04:32:03.640Z,42.87
2017-11-03T04:34:32.987Z,41.27
2017-11-03T04:37:01.732Z,41.43
2017-11-03T04:39:31.439Z,44.60
2017-11-03T04:41:59.790Z,42.03
2017-11-03T04:44:27.850Z,44.97
2017-11-03T04:46:56.632Z,42.00
2017-11-03T04:49:26.898Z,39.90
2017-11-03T04:51:55.289Z,45.23
2017-11-03T04:54:25.020Z,44.73
2017-11-03T04:56:53.379Z,40.70
2017-11-03T04:59:21.776Z,41.93
2017-11-03T05:01:50.141Z,46.07
2017-11-03T05:04:18.494Z,42.73
2017-11-03T05:06:46.894Z,49.57
2017-11-03T05:09:15.256Z,45.97
2017-11-03T05:11:43.607Z,44.97
2017-11-03T05:14:11.988Z,41.50
2017-11-03T05:16:40.359Z,42.90
2017-11-03T05:19:08.748Z,42.77
2017-11-03T05:21:37.105Z,45.37
2017-11-03T05:24:06.230Z,41.60
2017-11-03T05:26:34.631Z,43.83
2017-11-03T05:29:02.984Z,43.53
2017-11-03T05:31:31.340Z,44.97
2017-11-03T05:33:59.747Z,44.40
2017-11-03T05:36:27.415Z,44.27
2017-11-03T05:38:55.772Z,43.03
2017-11-03T05:41:24.166Z,50.67
2017-11-03T05:43:52.174Z,42.93
2017-11-03T05:46:20.188Z,45.13
2017-11-03T05:48:48.570Z,45.20
2017-11-03T05:51:16.962Z,41.73
2017-11-03T05:53:46.299Z,45.20
2017-11-03T05:56:14.651Z,45.33
2017-11-03T05:58:43.047Z,44.27
2017-11-03T06:01:11.220Z,46.70
2017-11-03T06:03:40.626Z,51.47
2017-11-03T06:06:09.036Z,50.10
2017-11-03T06:08:38.195Z,44.47
2017-11-03T06:11:06.551Z,43.97
2017-11-03T06:13:34.940Z,41.00
2017-11-03T06:16:03.295Z,48.70
2017-11-03T06:18:31.464Z,46.07
2017-11-03T06:20:59.668Z,48.53
2017-11-03T06:23:28.016Z,49.67
2017-11-03T06:25:56.379Z,43.37
2017-11-03T06:28:26.799Z,43.83
2017-11-03T06:30:55.158Z,43.23
2017-11-03T06:33:24.289Z,47.80
2017-11-03T06:35:52.676Z,41.13
2017-11-03T06:38:21.031Z,45.47
2017-11-03T06:40:49.290Z,47.93
2017-11-03T06:43:18.463Z,43.23
2017-11-03T06:45:46.821Z,44.23
2017-11-03T06:48:15.170Z,45.77
2017-11-03T06:50:43.202Z,47.53
2017-11-03T06:53:12.209Z,48.43
2017-11-03T06:55:40.271Z,45.43
2017-11-03T06:58:08.621Z,46.30
2017-11-03T07:00:37.746Z,42.70
2017-11-03T07:03:06.130Z,50.97
2017-11-03T07:05:34.497Z,47.33
2017-11-03T07:08:02.851Z,42.17
2017-11-03T07:10:31.805Z,43.20
2017-11-03T07:13:00.161Z,43.73
2017-11-03T07:15:28.171Z,45.53
2017-11-03T07:17:57.766Z,43.83
2017-11-03T07:20:25.774Z,42.73
2017-11-03T07:22:54.126Z,47.13
2017-11-03T07:25:23.302Z,45.70
2017-11-03T07:27:51.663Z,46.43
2017-11-03T07:30:20.018Z,49.50
2017-11-03T07:32:48.426Z,51.03
2017-11-03T07:35:16.785Z,46.40
2017-11-03T07:37:45.138Z,49.13
2017-11-03T07:40:13.524Z,49.83
2017-11-03T07:42:42.779Z,49.03
2017-11-03T07:45:10.796Z,48.13
2017-11-03T07:47:39.187Z,43.90
2017-11-03T07:50:07.541Z,46.20
2017-11-03T07:52:35.904Z,50.93
2017-11-03T07:55:05.051Z,50.47
2017-11-03T07:57:35.401Z,46.20
2017-11-03T08:00:03.763Z,52.97
2017-11-03T08:02:32.173Z,45.27
2017-11-03T08:05:01.298Z,45.77
2017-11-03T08:07:29.657Z,45.27
2017-11-03T08:09:58.038Z,45.40
2017-11-03T08:12:26.392Z,46.63
2017-11-03T08:14:54.746Z,47.07
2017-11-03T08:17:23.915Z,45.27
2017-11-03T08:19:52.269Z,44.83
2017-11-03T08:22:21.637Z,43.40
2017-11-03T08:24:50.026Z,47.27
2017-11-03T08:27:19.142Z,46.73
2017-11-03T08:29:47.498Z,44.23
2017-11-03T08:32:16.802Z,49.53
2017-11-03T08:34:45.922Z,47.13
2017-11-03T08:37:16.355Z,45.10
2017-11-03T08:39:44.710Z,52.47
2017-11-03T08:42:14.806Z,46.60
2017-11-03T08:44:43.175Z,49.17
2017-11-03T08:47:11.526Z,46.13
2017-11-03T08:49:39.912Z,45.17
2017-11-03T08:52:09.298Z,41.00
2017-11-03T08:54:37.911Z,40.20
2017-11-03T08:57:06.568Z,45.80
2017-11-03T08:59:34.914Z,39.20
2017-11-03T09:02:05.379Z,48.30
2017-11-03T09:04:33.754Z,41.93
2017-11-03T09:07:02.112Z,39.87
2017-11-03T09:09:30.251Z,41.83
2017-11-03T09:12:01.410Z,40.13
2017-11-03T09:14:29.084Z,42.57
2017-11-03T09:16:58.189Z,41.00
2017-11-03T09:19:26.538Z,40.23
2017-11-03T09:21:55.944Z,40.67
2017-11-03T09:24:24.575Z,41.83
2017-11-03T09:26:53.898Z,40.67
2017-11-03T09:29:22.254Z,44.40
2017-11-03T09:31:51.545Z,38.73
2017-11-03T09:34:19.556Z,43.50
2017-11-03T09:36:48.852Z,43.53
2017-11-03T09:39:16.888Z,45.67
2017-11-03T09:41:48.379Z,43.40
2017-11-03T09:44:17.542Z,39.37
2017-11-03T09:46:46.866Z,42.10
2017-11-03T09:49:15.217Z,40.93
2017-11-03T09:51:44.610Z,38.10
2017-11-03T09:54:12.967Z,39.33
2017-11-03T09:56:40.627Z,39.87
2017-11-03T09:59:09.031Z,40.47
2017-11-03T10:01:37.389Z,37.40
2017-11-03T10:04:05.747Z,39.23
2017-11-03T10:06:34.150Z,40.37
2017-11-03T10:09:02.322Z,41.17
2017-11-03T10:11:32.695Z,40.73
2017-11-03T10:14:01.069Z,38.60
2017-11-03T10:16:29.418Z,36.83
2017-11-03T10:18:57.823Z,42.03
2017-11-03T10:21:25.834Z,38.07
2017-11-03T10:23:54.185Z,39.17
2017-11-03T10:26:24.995Z,40.97
2017-11-03T10:28:53.383Z,35.20
2017-11-03T10:31:23.716Z,36.27
2017-11-03T10:33:52.326Z,35.00
2017-11-03T10:36:22.414Z,40.83
2017-11-03T10:38:50.775Z,36.07
2017-11-03T10:41:22.910Z,40.20
2017-11-03T10:43:51.258Z,41.20
2017-11-03T10:46:19.691Z,37.37
2017-11-03T10:48:48.066Z,35.27
2017-11-03T10:51:19.875Z,38.93
2017-11-03T10:53:48.312Z,36.93
2017-11-03T10:56:17.672Z,32.97
2017-11-03T10:58:46.082Z,37.33
2017-11-03T11:01:17.894Z,38.03
2017-11-03T11:03:46.350Z,41.37
2017-11-03T11:06:14.713Z,36.10
2017-11-03T11:08:43.070Z,36.07
2017-11-03T11:11:13.527Z,37.60
2017-11-03T11:13:41.881Z,35.87
2017-11-03T11:16:12.227Z,35.97
2017-11-03T11:18:40.706Z,35.67
2017-11-03T11:21:08.725Z,36.67
2017-11-03T11:23:37.074Z,31.37
2017-11-03T11:26:07.884Z,39.63
2017-11-03T11:28:36.243Z,37.00
2017-11-03T11:31:05.603Z,38.70
2017-11-03T11:33:33.965Z,32.90
2017-11-03T11:36:02.238Z,28.50
2017-11-03T11:38:30.705Z,30.07
2017-11-03T11:40:58.379Z,32.73
2017-11-03T11:43:26.035Z,31.73
2017-11-03T12:31:47.384Z,32.67
2017-11-03T12:34:15.431Z,33.23
2017-11-03T12:36:43.866Z,31.40
2017-11-03T12:39:11.543Z,30.07
2017-11-03T12:41:39.261Z,30.57
2017-11-03T12:44:06.929Z,27.83
2017-11-03T12:46:34.635Z,28.13
2017-11-03T12:49:02.345Z,29.67
2017-11-03T12:51:30.015Z,29.20
2017-11-03T12:53:57.682Z,27.07
2017-11-03T12:56:25.386Z,29.90
2017-11-03T12:58:53.055Z,26.13
2017-11-03T13:01:22.423Z,26.63
2017-11-03T13:03:50.110Z,26.20
2017-11-03T13:06:17.800Z,27.67
2017-11-03T13:08:45.710Z,24.17
2017-11-03T13:11:15.429Z,27.13
2017-11-03T13:13:43.103Z,21.83
2017-11-03T13:16:11.463Z,23.40
2017-11-03T13:18:39.511Z,25.47
2017-11-03T13:21:08.166Z,28.77
2017-11-03T13:23:36.598Z,20.63
2017-11-03T13:26:04.356Z,22.50
2017-11-03T13:28:31.834Z,22.23
2017-11-03T13:31:00.446Z,26.17
2017-11-03T13:33:28.901Z,22.87
2017-11-03T13:35:56.598Z,21.30
2017-11-03T13:38:24.262Z,22.50
2017-11-03T13:40:53.992Z,22.33
2017-11-03T13:43:22.270Z,21.47
2017-11-03T13:45:49.934Z,23.57
2017-11-03T13:48:17.630Z,23.23
2017-11-03T13:50:46.402Z,21.40
2017-11-03T13:53:14.769Z,17.87
2017-11-03T13:55:43.862Z,24.83
2017-11-03T13:58:11.545Z,20.60
2017-11-03T14:00:41.016Z,18.33
2017-11-03T14:03:09.370Z,22.00
2017-11-03T14:05:38.911Z,22.13
2017-11-03T14:08:07.322Z,20.90
2017-11-03T14:10:35.003Z,20.30
2017-11-03T14:13:03.782Z,30.10
2017-11-03T14:15:32.955Z,17.00
2017-11-03T14:18:01.314Z,19.07
2017-11-03T14:20:29.687Z,20.07
2017-11-03T14:22:58.087Z,19.77
2017-11-03T14:25:26.459Z,19.87
2017-11-03T14:27:54.827Z,20.90
2017-11-03T14:30:24.317Z,19.43
2017-11-03T14:32:52.710Z,19.90
2017-11-03T14:35:20.883Z,21.70
2017-11-03T14:37:49.240Z,22.60
2017-11-03T14:40:17.899Z,24.67
2017-11-03T14:42:47.026Z,24.20
2017-11-03T14:45:15.386Z,23.27
2017-11-03T14:47:43.763Z,23.87
2017-11-03T14:50:12.153Z,23.00
2017-11-03T14:52:40.782Z,21.37
2017-11-03T14:55:11.218Z,20.30
2017-11-03T14:57:39.608Z,22.10
2017-11-03T15:00:08.732Z,20.03
2017-11-03T15:02:37.098Z,19.97
2017-11-03T15:05:06.675Z,23.57
2017-11-03T15:07:35.025Z,21.90
2017-11-03T15:10:05.241Z,27.53
2017-11-03T15:12:33.631Z,25.47
2017-11-03T15:15:02.038Z,30.07
2017-11-03T15:17:31.162Z,26.80
2017-11-03T15:20:00.543Z,30.37
2017-11-03T15:22:29.682Z,26.53
2017-11-03T15:24:57.714Z,26.63
2017-11-03T15:27:26.886Z,30.23
2017-11-03T15:29:56.295Z,28.37
2017-11-03T15:32:24.658Z,29.60
2017-11-03T15:34:53.071Z,27.90
2017-11-03T15:37:22.011Z,26.80
2017-11-03T15:39:51.339Z,29.10
2017-11-03T15:42:19.739Z,31.77
2017-11-03T15:44:48.166Z,27.87
2017-11-03T15:47:16.526Z,27.70
2017-11-03T15:49:45.850Z,28.23
2017-11-03T15:52:13.511Z,31.97
2017-11-03T15:54:41.559Z,28.00
2017-11-03T15:57:09.934Z,27.23
2017-11-03T15:59:38.493Z,29.43
2017-11-03T16:02:06.867Z,29.63
2017-11-03T16:04:35.290Z,31.07
2017-11-03T16:07:03.678Z,30.77
2017-11-03T16:09:33.279Z,30.37
2017-11-03T16:12:02.645Z,31.63
2017-11-03T16:14:31.023Z,31.13
2017-11-03T16:16:59.462Z,27.87
2017-11-03T16:19:27.822Z,29.13
2017-11-03T16:21:56.197Z,32.97
2017-11-03T16:24:25.523Z,29.07
2017-11-03T16:26:53.908Z,31.83
2017-11-03T16:29:22.271Z,27.23
2017-11-03T16:31:50.624Z,29.40
2017-11-03T16:34:19.040Z,30.90
2017-11-03T16:36:47.638Z,30.00
2017-11-03T16:39:16.766Z,31.63
2017-11-03T16:41:45.174Z,32.80
2017-11-03T16:44:13.523Z,35.00
2017-11-03T16:46:41.878Z,31.33
2017-11-03T16:49:10.254Z,30.03
2017-11-03T16:51:39.527Z,31.43
2017-11-03T16:54:07.907Z,30.60
2017-11-03T16:56:36.281Z,33.87
2017-11-03T16:59:04.543Z,34.37
2017-11-03T17:01:32.983Z,31.87
2017-11-03T17:04:01.334Z,31.73
2017-11-03T17:06:29.762Z,36.60
2017-11-03T17:08:57.811Z,35.83
2017-11-03T17:11:26.164Z,35.07
2017-11-03T17:13:55.308Z,36.07
2017-11-03T17:16:23.870Z,33.90
2017-11-03T17:18:52.243Z,36.97
2017-11-03T17:21:20.598Z,39.40
2017-11-03T17:23:49.773Z,32.60
2017-11-03T17:26:18.153Z,33.93
2017-11-03T17:29:03.707Z,40.07
2017-11-03T17:31:32.059Z,36.07
2017-11-03T17:34:00.419Z,38.20
2017-11-03T17:36:28.901Z,40.30
2017-11-03T17:38:57.249Z,39.03
2017-11-03T17:41:26.371Z,47.23
2017-11-03T17:43:54.781Z,38.50
2017-11-03T17:46:22.948Z,42.97
2017-11-03T17:48:50.774Z,38.23
2017-11-03T17:51:19.914Z,43.70
2017-11-03T17:53:48.291Z,40.90
2017-11-03T17:56:16.648Z,46.50
2017-11-03T17:58:45.062Z,39.90
2017-11-03T18:01:13.423Z,38.70
2017-11-03T18:03:41.775Z,42.77
2017-11-03T18:06:10.186Z,41.70
2017-11-03T18:08:38.547Z,45.03
2017-11-03T18:11:06.723Z,41.53
2017-11-03T18:13:34.940Z,48.53
2017-11-03T18:16:03.293Z,39.97
2017-11-03T18:18:31.348Z,42.10
2017-11-03T18:20:59.030Z,45.57
2017-11-03T18:23:27.070Z,40.77
2017-11-03T18:25:55.439Z,42.13
2017-11-03T18:28:23.790Z,38.97
2017-11-03T18:30:52.962Z,42.23
2017-11-03T18:33:21.315Z,44.47
2017-11-03T18:35:49.326Z,41.10
2017-11-03T18:38:18.481Z,47.57
2017-11-03T18:40:46.839Z,42.70
2017-11-03T18:43:15.755Z,45.57
2017-11-03T18:45:44.151Z,42.70
2017-11-03T18:48:12.511Z,44.90
2017-11-03T18:50:40.866Z,46.87
2017-11-03T18:53:09.271Z,48.57
2017-11-03T18:55:37.630Z,48.77
2017-11-03T18:58:07.995Z,49.53
2017-11-03T19:00:36.401Z,48.50
2017-11-03T19:03:04.759Z,47.03
2017-11-03T19:05:33.115Z,47.93
2017-11-03T19:08:02.479Z,47.07
2017-11-03T19:10:30.835Z,54.13
2017-11-03T19:13:00.206Z,46.13
2017-11-03T19:15:28.608Z,45.23
2017-11-03T19:17:57.743Z,51.87
2017-11-03T19:20:26.099Z,47.13
2017-11-03T19:22:54.486Z,52.07
2017-11-03T19:25:22.656Z,45.77
2017-11-03T19:27:51.016Z,47.27
2017-11-03T19:30:19.215Z,46.47
2017-11-03T19:32:48.567Z,47.77
2017-11-03T19:35:16.730Z,44.83
2017-11-03T19:37:45.153Z,48.80
2017-11-03T19:40:13.728Z,47.27
2017-11-03T19:42:42.095Z,47.53
2017-11-03T19:45:11.271Z,45.57
2017-11-03T19:47:39.713Z,48.57
2017-11-03T19:50:08.104Z,43.10
2017-11-03T19:52:36.508Z,44.83
2017-11-03T19:55:04.872Z,43.93
2017-11-03T19:57:33.543Z,40.93
2017-11-03T20:00:01.991Z,43.43
2017-11-03T20:02:30.346Z,45.10
2017-11-03T20:04:59.637Z,44.03
2017-11-03T20:07:28.712Z,43.57
2017-11-03T20:09:58.126Z,46.20
2017-11-03T20:12:26.512Z,46.57
2017-11-03T20:14:56.587Z,45.27
2017-11-03T20:17:25.820Z,41.90
2017-11-03T20:19:54.950Z,43.77
2017-11-03T20:22:37.211Z,46.03
2017-11-03T20:25:05.618Z,45.30
2017-11-03T20:27:33.994Z,45.20
2017-11-03T20:30:03.183Z,41.93
2017-11-03T20:32:35.355Z,50.60
2017-11-03T20:35:03.763Z,46.13
2017-11-03T20:37:32.139Z,41.57
2017-11-03T20:40:00.514Z,45.73
2017-11-03T20:42:28.902Z,44.30
2017-11-03T20:44:57.530Z,44.67
2017-11-03T20:47:26.728Z,41.07
2017-11-03T20:49:55.348Z,45.83
2017-11-03T20:52:23.944Z,45.03
2017-11-03T20:54:52.599Z,42.43
2017-11-03T20:57:22.130Z,45.03
2017-11-03T20:59:50.654Z,43.20
2017-11-03T21:02:19.035Z,42.40
2017-11-03T21:04:47.415Z,43.77
2017-11-03T21:07:16.809Z,46.10
2017-11-03T21:09:46.057Z,43.67
2017-11-03T21:12:15.509Z,40.97
2017-11-03T21:14:43.916Z,45.97
2017-11-03T21:17:14.052Z,43.00
2017-11-03T21:19:42.419Z,46.00
2017-11-03T21:22:11.842Z,46.70
2017-11-03T21:24:39.848Z,42.87
2017-11-03T21:27:08.222Z,44.27
2017-11-03T21:29:36.620Z,40.23
2017-11-03T21:32:05.007Z,44.57
2017-11-03T21:34:34.129Z,44.10
2017-11-03T21:37:02.528Z,46.30
2017-11-03T21:39:30.888Z,44.33
2017-11-03T21:41:59.317Z,45.50
2017-11-03T21:44:29.032Z,43.47
2017-11-03T21:46:57.392Z,45.73
2017-11-03T21:49:25.747Z,47.27
2017-11-03T21:51:56.158Z,46.47
2017-11-03T21:54:24.540Z,45.17
2017-11-03T21:56:53.903Z,49.63
2017-11-03T21:59:22.309Z,44.87
2017-11-03T22:01:50.323Z,47.87
2017-11-03T22:04:18.683Z,46.20
2017-11-03T22:07:07.998Z,47.20
2017-11-03T22:09:37.123Z,50.10
2017-11-03T22:12:05.775Z,45.33
2017-11-03T22:14:37.532Z,45.57
2017-11-03T22:17:05.928Z,43.23
2017-11-03T22:19:35.051Z,54.60
2017-11-03T22:22:03.410Z,48.43
2017-11-03T22:24:31.787Z,45.83
2017-11-03T22:27:00.173Z,44.87
2017-11-03T22:29:28.387Z,46.53
2017-11-03T22:31:56.747Z,52.80
2017-11-03T22:34:25.104Z,43.80
2017-11-03T22:36:53.511Z,50.83
2017-11-03T22:39:22.642Z,55.23
2017-11-03T22:41:51.584Z,48.20
2017-11-03T22:44:19.978Z,49.13
2017-11-03T22:46:48.339Z,43.53
2017-11-03T22:49:20.162Z,45.43
2017-11-03T22:51:49.312Z,41.10
2017-11-03T22:54:17.665Z,42.70
2017-11-03T22:56:46.014Z,42.37
2017-11-03T22:59:15.172Z,44.17
2017-11-03T23:01:43.524Z,43.13
2017-11-03T23:04:11.881Z,44.07
2017-11-03T23:06:40.264Z,41.37
2017-11-03T23:09:08.620Z,41.17
2017-11-03T23:11:37.743Z,38.60
2017-11-03T23:14:08.156Z,38.80
2017-11-03T23:16:36.506Z,39.60
2017-11-03T23:19:05.627Z,39.33
2017-11-03T23:21:34.032Z,42.53
2017-11-03T23:24:02.384Z,38.97
2017-11-03T23:26:30.742Z,37.70
2017-11-03T23:28:59.885Z,37.93
2017-11-03T23:31:28.243Z,40.10
2017-11-03T23:33:56.630Z,38.23
2017-11-03T23:36:25.015Z,39.77
2017-11-03T23:38:53.373Z,37.67
2017-11-03T23:41:21.727Z,40.40
2017-11-03T23:43:50.866Z,37.73
2017-11-03T23:46:19.228Z,35.20
2017-11-03T23:48:47.679Z,33.33
2017-11-03T23:51:16.803Z,32.90
2017-11-03T23:53:46.156Z,37.47
2017-11-03T23:56:14.534Z,35.53
2017-11-03T23:58:43.828Z,34.70
